CheckWX is a tool to help pilots better visualize weather data.  It is not intended as a substitute for an official pre-flight weather briefing.

00:20:11 UTC

KCKB TAF
North Central West Virginia Airport
Clarksburg, West Virginia, USA
KCKB 252323Z 2600/2624 01009G15KT P6SM -SHRA OVC009 TEMPO 2600/2601 4SM -SHRA BR OVC015 FM260100 01009G15KT P6SM OVC013 TEMPO 2601/2603 OVC025 FM260300 01009G16KT P6SM OVC025 FM260400 01009G15KT P6SM BKN035 FM260600 01009KT P6SM SCT100

Mar-26@
00:00 UTC

Mar-26 @ 00:00 UTC

Mar-26@
01:00 UTC

Mar-26 @ 01:00 UTC

KCKB 252323Z 2600/2624 01009G15KT P6SM -SHRA OVC009
Wind
  • 010° at 9 KTS
  • {Gusting to 15 KTS
Conditions
Light Rain
Cloud Levels
  • Overcast at 900' AGL

Mar-26@
00:00 UTC

Mar-26 @ 00:00 UTC

Mar-26@
01:00 UTC

Mar-26 @ 01:00 UTC

TEMPO 2600/2601 4SM -SHRA BR OVC015

Temporary

Temporary Changes expected for less than half the time period

Conditions
Light Rain, Mist
Cloud Levels
  • Overcast at 1,500' AGL

Mar-26@
01:00 UTC

Mar-26 @ 01:00 UTC

Mar-26@
03:00 UTC

Mar-26 @ 03:00 UTC

FM260100 01009G15KT P6SM OVC013

From

From Standard forecast or significant change

Wind
  • 010° at 9 KTS
  • {Gusting to 15 KTS
Cloud Levels
  • Overcast at 1,300' AGL

Mar-26@
01:00 UTC

Mar-26 @ 01:00 UTC

Mar-26@
03:00 UTC

Mar-26 @ 03:00 UTC

TEMPO 2601/2603 OVC025

Temporary

Temporary Changes expected for less than half the time period

Cloud Levels
  • Overcast at 2,500' AGL

Mar-26@
03:00 UTC

Mar-26 @ 03:00 UTC

Mar-26@
04:00 UTC

Mar-26 @ 04:00 UTC

FM260300 01009G16KT P6SM OVC025

From

From Standard forecast or significant change

Wind
  • 010° at 9 KTS
  • {Gusting to 16 KTS
Cloud Levels
  • Overcast at 2,500' AGL

Mar-26@
04:00 UTC

Mar-26 @ 04:00 UTC

Mar-26@
06:00 UTC

Mar-26 @ 06:00 UTC

FM260400 01009G15KT P6SM BKN035

From

From Standard forecast or significant change

Wind
  • 010° at 9 KTS
  • {Gusting to 15 KTS
Cloud Levels
  • Broken at 3,500' AGL

Mar-26@
06:00 UTC

Mar-26 @ 06:00 UTC

Mar-27@
00:00 UTC

Mar-27 @ 00:00 UTC

FM260600 01009KT P6SM SCT100

From

From Standard forecast or significant change

Wind
  • 010° at 9 KTS
Cloud Levels
  • Scattered at 10,000' AGL